Time;durP1;ratioP1;P1;durP2;ratioP2;P2;SDS_P1;SDS_P2;PMS_P1;PMS_P2;Temp;Humidity;BMP_temperature;BMP_pressure;BME280_temperature;BME280_humidity;BME280_pressure;Samples;Min_cycle;Max_cycle;Signal;HPM_P1;HPM_P2
2023/03/28 00:01:07;;;;;;;64.68;5.35;;;2.00;1.00;;;;;;5035083;28;20214;-74
2023/03/28 00:03:38;;;;;;;59.95;5.15;;;;;;;;;;5034996;28;20270;-73
2023/03/28 00:06:08;;;;;;;63.90;5.07;;;2.00;1.00;;;;;;5035378;28;20217;-74
2023/03/28 00:08:35;;;;;;;69.43;6.15;;;2.00;1.00;;;;;;5034566;28;20707;-74
2023/03/28 00:14:24;;;;;;;59.17;4.40;;;2.10;1.00;;;;;;5033348;28;20198;-74
2023/03/28 00:16:52;;;;;;;62.13;5.07;;;2.00;1.00;;;;;;5035049;28;20227;-73
2023/03/28 00:19:20;;;;;;;59.63;4.70;;;2.00;1.00;;;;;;5034550;28;20206;-73
2023/03/28 00:21:50;;;;;;;60.33;4.70;;;1.90;1.00;;;;;;5035102;28;20214;-73
2023/03/28 00:24:20;;;;;;;60.75;5.20;;;2.00;1.00;;;;;;5034929;28;20230;-73
2023/03/28 00:26:53;;;;;;;61.25;5.30;;;1.90;1.00;;;;;;5035000;28;20202;-73
2023/03/28 00:29:21;;;;;;;63.30;5.50;;;1.90;1.00;;;;;;5034531;28;20206;-73
2023/03/28 00:31:49;;;;;;;60.45;5.38;;;2.00;1.00;;;;;;5034655;28;20256;-73
2023/03/28 00:34:17;;;;;;;60.60;5.05;;;2.00;1.00;;;;;;5034646;28;20233;-73
2023/03/28 00:36:44;;;;;;;60.90;4.63;;;2.00;1.00;;;;;;5034511;28;20590;-73
2023/03/28 00:39:12;;;;;;;61.75;4.65;;;1.90;1.00;;;;;;5034594;28;20202;-73
2023/03/28 00:41:41;;;;;;;61.90;5.35;;;1.90;1.00;;;;;;5034522;28;20674;-73
2023/03/28 00:44:43;;;;;;;61.10;5.10;;;1.80;1.00;;;;;;5034445;28;20230;-73
2023/03/28 00:47:16;;;;;;;60.70;5.40;;;1.80;1.00;;;;;;5034691;28;20314;-73
2023/03/28 00:49:48;;;;;;;60.20;4.97;;;;;;;;;;5034317;28;20214;-73
2023/03/28 00:52:17;;;;;;;62.05;5.05;;;;;;;;;;5034494;28;20216;-74
2023/03/28 00:54:44;;;;;;;62.92;5.05;;;;;;;;;;5034266;28;20218;-73
2023/03/28 00:57:11;;;;;;;59.45;5.30;;;;;;;;;;5033941;28;20313;-73
2023/03/28 00:59:39;;;;;;;59.92;5.80;;;;;;;;;;5034151;28;20283;-73
2023/03/28 01:02:07;;;;;;;60.00;4.78;;;;;;;;;;5034553;28;20586;-74
2023/03/28 01:04:36;;;;;;;59.67;5.15;;;;;;;;;;5033875;28;20209;-73
2023/03/28 01:07:06;;;;;;;62.00;5.88;;;;;;;;;;5033981;28;20233;-73
2023/03/28 01:09:33;;;;;;;59.63;4.95;;;;;;;;;;5033721;28;20210;-74
2023/03/28 01:12:01;;;;;;;60.38;5.13;;;;;;;;;;5034388;28;20582;-73
2023/03/28 01:14:29;;;;;;;60.53;5.38;;;;;;;;;;5033954;28;20210;-73
2023/03/28 01:16:56;;;;;;;60.00;5.70;;;;;;;;;;5033821;28;20227;-73
2023/03/28 01:19:27;;;;;;;59.47;5.13;;;;;;;;;;5033626;28;20217;-73
2023/03/28 01:22:05;;;;;;;59.20;4.50;;;;;;;;;;5033725;28;20213;-73
2023/03/28 01:27:40;;;;;;;61.80;5.32;;;;;;;;;;5031806;28;20217;-73
2023/03/28 01:30:32;;;;;;;66.53;4.70;;;1.20;1.00;;;;;;5033509;28;20253;-73
2023/03/28 01:33:37;;;;;;;61.90;5.00;;;1.10;1.00;;;;;;5033905;28;20242;-73
2023/03/28 01:36:29;;;;;;;61.72;5.57;;;;;;;;;;5033630;28;20208;-73
2023/03/28 01:38:59;;;;;;;59.70;5.38;;;;;;;;;;5033416;28;20532;-73
2023/03/28 01:41:32;;;;;;;64.72;5.75;;;;;;;;;;5033575;28;20210;-73
2023/03/28 01:44:03;;;;;;;61.03;5.30;;;;;;;;;;5033484;28;20233;-73
2023/03/28 01:46:31;;;;;;;62.40;5.72;;;;;;;;;;5033281;28;20222;-73
2023/03/28 01:49:03;;;;;;;59.70;5.10;;;;;;;;;;5033100;28;20395;-73
2023/03/28 01:51:40;;;;;;;60.22;5.50;;;;;;;;;;5033498;28;20417;-73
2023/03/28 01:54:12;;;;;;;59.97;5.78;;;;;;;;;;5033135;28;20299;-72
2023/03/28 01:56:40;;;;;;;59.35;4.93;;;;;;;;;;5033223;28;20204;-73
2023/03/28 01:59:10;;;;;;;61.03;4.93;;;;;;;;;;5032684;28;20697;-73
2023/03/28 02:01:40;;;;;;;61.05;5.28;;;;;;;;;;5032830;28;20206;-73
2023/03/28 02:04:09;;;;;;;62.58;5.28;;;;;;;;;;5033149;28;20297;-73
2023/03/28 02:06:39;;;;;;;61.72;5.60;;;;;;;;;;5032991;28;20629;-72
2023/03/28 02:09:08;;;;;;;63.50;5.30;;;;;;;;;;5031998;28;20214;-73
2023/03/28 02:11:36;;;;;;;61.75;5.05;;;;;;;;;;5032803;28;20209;-72
2023/03/28 02:14:06;;;;;;;62.55;6.57;;;;;;;;;;5032581;28;20209;-73
2023/03/28 02:16:37;;;;;;;60.05;5.00;;;;;;;;;;5032764;28;20299;-72
2023/03/28 02:19:06;;;;;;;61.20;5.68;;;;;;;;;;5032452;28;20210;-73
2023/03/28 02:21:37;;;;;;;61.67;5.80;;;;;;;;;;5032772;28;20267;-73
2023/03/28 02:24:06;;;;;;;59.60;4.80;;;;;;;;;;5032410;28;20222;-73
2023/03/28 02:26:33;;;;;;;62.42;5.15;;;;;;;;;;5032331;28;20209;-73
2023/03/28 02:29:01;;;;;;;59.97;5.20;;;;;;;;;;5032369;28;20263;-72
2023/03/28 02:31:28;;;;;;;60.38;5.90;;;;;;;;;;5032610;28;20209;-72
2023/03/28 02:33:57;;;;;;;62.15;5.30;;;;;;;;;;5032325;28;20677;-73
2023/03/28 02:36:30;;;;;;;59.78;5.03;;;;;;;;;;5032462;28;20305;-73
2023/03/28 02:39:02;;;;;;;62.05;5.57;;;;;;;;;;5031900;28;20213;-73
2023/03/28 02:41:35;;;;;;;60.38;5.13;;;;;;;;;;5032391;28;20685;-73
2023/03/28 02:44:10;;;;;;;59.50;5.45;;;;;;;;;;5032182;28;20703;-73
2023/03/28 02:46:44;;;;;;;61.85;5.25;;;;;;;;;;5032096;28;20219;-73
2023/03/28 02:49:20;;;;;;;60.08;5.30;;;;;;;;;;5032341;28;20217;-73
2023/03/28 02:51:50;;;;;;;61.53;6.18;;;;;;;;;;5031998;28;20215;-73
2023/03/28 02:54:26;;;;;;;61.05;6.32;;;;;;;;;;5031980;28;20206;-73
2023/03/28 02:57:00;;;;;;;61.97;5.53;;;;;;;;;;5032142;28;20709;-73
2023/03/28 02:59:31;;;;;;;66.20;9.00;;;;;;;;;;5031733;28;20295;-73
2023/03/28 03:01:58;;;;;;;67.53;10.27;;;;;;;;;;5031803;28;20213;-73
2023/03/28 03:04:25;;;;;;;61.13;6.90;;;;;;;;;;5031694;28;20229;-73
2023/03/28 03:06:53;;;;;;;64.38;7.00;;;;;;;;;;5031989;28;20294;-73
2023/03/28 03:09:21;;;;;;;62.33;6.63;;;;;;;;;;5031572;28;20213;-72
2023/03/28 03:11:48;;;;;;;65.20;7.40;;;;;;;;;;5031907;28;20229;-73
2023/03/28 03:14:17;;;;;;;62.30;6.97;;;;;;;;;;5031763;28;20213;-73
2023/03/28 03:16:44;;;;;;;61.65;6.82;;;;;;;;;;5031522;28;20223;-73
2023/03/28 03:19:11;;;;;;;64.38;6.72;;;;;;;;;;5031604;28;20219;-72
2023/03/28 03:21:38;;;;;;;63.50;7.05;;;;;;;;;;5031648;28;20216;-73
2023/03/28 03:24:08;;;;;;;62.50;6.00;;;;;;;;;;5031685;28;20592;-72
2023/03/28 03:26:35;;;;;;;60.50;5.88;;;;;;;;;;5031722;28;20215;-72
2023/03/28 03:29:02;;;;;;;61.17;6.53;;;;;;;;;;5031224;28;20208;-73
2023/03/28 03:31:31;;;;;;;61.78;6.70;;;;;;;;;;5031450;28;20244;-73
2023/03/28 03:34:00;;;;;;;64.18;6.10;;;;;;;;;;5031966;28;20205;-73
2023/03/28 03:36:29;;;;;;;59.97;5.93;;;;;;;;;;5031767;28;20217;-72
2023/03/28 03:38:56;;;;;;;60.83;5.70;;;;;;;;;;5031068;28;20201;-72
2023/03/28 03:41:23;;;;;;;61.20;5.90;;;;;;;;;;5031516;28;20304;-73
2023/03/28 03:43:50;;;;;;;62.88;6.15;;;;;;;;;;5031259;28;20230;-73
2023/03/28 03:46:18;;;;;;;60.67;5.90;;;;;;;;;;5031400;28;20212;-73
2023/03/28 03:48:46;;;;;;;60.40;5.40;;;;;;;;;;5031266;28;20602;-73
2023/03/28 03:51:13;;;;;;;61.78;6.25;;;;;;;;;;5031603;28;20203;-73
2023/03/28 03:53:40;;;;;;;60.55;6.35;;;;;;;;;;5031415;28;20225;-73
2023/03/28 03:56:08;;;;;;;61.25;6.30;;;;;;;;;;5031102;28;20206;-72
2023/03/28 03:58:35;;;;;;;62.20;6.00;;;;;;;;;;5031128;28;20318;-73
2023/03/28 04:01:08;;;;;;;60.53;5.85;;;;;;;;;;5031473;28;20219;-72
2023/03/28 04:03:36;;;;;;;62.92;5.47;;;;;;;;;;5031442;28;20324;-73
2023/03/28 04:06:05;;;;;;;60.97;5.90;;;;;;;;;;5031400;28;20564;-73
2023/03/28 04:08:32;;;;;;;60.72;6.35;;;;;;;;;;5030974;28;20233;-71
2023/03/28 04:11:00;;;;;;;61.72;6.50;;;;;;;;;;5031148;28;20239;-73
2023/03/28 04:13:27;;;;;;;61.45;6.22;;;;;;;;;;5031523;28;20210;-72
2023/03/28 04:15:54;;;;;;;62.92;6.38;;;;;;;;;;5031213;28;20619;-73
2023/03/28 04:18:21;;;;;;;61.03;6.20;;;;;;;;;;5030984;28;20225;-72
2023/03/28 04:20:52;;;;;;;63.20;6.35;;;;;;;;;;5030875;28;20757;-73
2023/03/28 04:23:24;;;;;;;62.50;6.35;;;;;;;;;;5030874;28;20210;-72
2023/03/28 04:25:54;;;;;;;61.60;6.22;;;;;;;;;;5031353;28;20213;-72
2023/03/28 04:28:23;;;;;;;61.38;6.68;;;;;;;;;;5031064;28;20252;-72
2023/03/28 04:30:52;;;;;;;61.80;6.70;;;;;;;;;;5030956;28;20218;-72
2023/03/28 04:33:23;;;;;;;62.03;6.93;;;;;;;;;;5033854;28;20251;-72
2023/03/28 04:35:55;;;;;;;63.47;7.00;;;;;;;;;;5034588;28;20593;-73
2023/03/28 04:38:25;;;;;;;60.67;6.28;;;;;;;;;;5034331;28;20240;-73
2023/03/28 04:40:56;;;;;;;60.85;6.50;;;;;;;;;;5034490;28;20207;-72
2023/03/28 04:43:23;;;;;;;60.67;6.05;;;;;;;;;;5034501;28;20205;-73
2023/03/28 04:45:50;;;;;;;61.83;6.70;;;;;;;;;;5034416;28;20224;-72
2023/03/28 04:48:18;;;;;;;64.78;7.45;;;;;;;;;;5034046;28;20324;-72
2023/03/28 04:50:45;;;;;;;61.65;6.15;;;;;;;;;;5034147;28;20209;-72
2023/03/28 04:53:12;;;;;;;65.43;6.97;;;;;;;;;;5034334;28;20580;-73
2023/03/28 04:55:40;;;;;;;62.80;7.15;;;;;;;;;;5034440;28;20212;-72
2023/03/28 04:58:07;;;;;;;63.03;6.93;;;;;;;;;;5034054;28;20235;-73
2023/03/28 05:00:35;;;;;;;62.65;7.05;;;;;;;;;;5033615;28;20681;-73
2023/03/28 05:03:03;;;;;;;62.85;6.35;;;;;;;;;;5033956;28;20242;-72
2023/03/28 05:05:30;;;;;;;61.30;6.78;;;;;;;;;;5034092;28;20313;-73
2023/03/28 05:07:58;;;;;;;63.90;7.20;;;;;;;;;;5033809;28;20225;-73
2023/03/28 05:10:25;;;;;;;62.08;7.10;;;;;;;;;;5033788;28;20265;-73
2023/03/28 05:12:53;;;;;;;63.30;6.93;;;;;;;;;;5033853;28;20572;-72
2023/03/28 05:15:21;;;;;;;63.15;7.13;;;;;;;;;;5034183;28;20212;-72
2023/03/28 05:17:48;;;;;;;63.50;7.13;;;;;;;;;;5034057;28;20315;-73
2023/03/28 05:20:17;;;;;;;65.43;7.07;;;;;;;;;;5033645;28;20203;-73
2023/03/28 05:22:44;;;;;;;63.75;7.60;;;;;;;;;;5033881;28;20767;-72
2023/03/28 05:25:11;;;;;;;70.95;7.90;;;;;;;;;;5033633;28;20775;-73
2023/03/28 05:27:38;;;;;;;64.55;6.97;;;;;;;;;;5033601;28;20227;-71
2023/03/28 05:30:08;;;;;;;60.92;5.97;;;;;;;;;;5033160;28;20207;-72
2023/03/28 05:32:36;;;;;;;62.65;7.43;;;;;;;;;;5033675;28;20216;-72
2023/03/28 05:35:03;;;;;;;63.28;7.65;;;;;;;;;;5033660;28;20729;-72
2023/03/28 05:37:30;;;;;;;63.70;6.85;;;;;;;;;;5033394;28;20225;-72
2023/03/28 05:39:57;;;;;;;68.32;7.03;;;;;;;;;;5033117;28;20228;-73
2023/03/28 05:42:25;;;;;;;67.05;7.15;;;;;;;;;;5033163;28;20215;-72
2023/03/28 05:44:52;;;;;;;63.35;7.75;;;;;;;;;;5032104;28;20234;-73
2023/03/28 05:47:20;;;;;;;64.78;8.35;;;;;;;;;;5033346;28;20227;-72
2023/03/28 05:49:47;;;;;;;63.08;7.65;;;;;;;;;;5032976;28;20204;-72
2023/03/28 05:52:15;;;;;;;65.20;9.75;;;;;;;;;;5033256;28;20206;-72
2023/03/28 05:54:42;;;;;;;64.00;8.35;;;;;;;;;;5033518;28;20228;-72
2023/03/28 05:57:09;;;;;;;65.18;9.13;;;;;;;;;;5032987;28;20232;-73
2023/03/28 05:59:39;;;;;;;66.60;9.15;;;;;;;;;;5032951;28;20216;-73
2023/03/28 06:02:06;;;;;;;67.80;9.65;;;;;;;;;;5033139;28;20223;-73
2023/03/28 06:04:35;;;;;;;63.55;8.15;;;;;;;;;;5032783;28;20229;-72
2023/03/28 06:07:02;;;;;;;69.70;8.35;;;;;;;;;;5032896;28;20240;-73
2023/03/28 06:09:30;;;;;;;63.85;8.05;;;;;;;;;;5032505;28;20601;-72
2023/03/28 06:11:57;;;;;;;64.97;8.52;;;;;;;;;;5033149;28;20208;-73
2023/03/28 06:14:24;;;;;;;67.90;9.55;;;;;;;;;;5032929;28;20197;-72
2023/03/28 06:16:51;;;;;;;71.88;12.45;;;;;;;;;;5032656;28;20240;-72
2023/03/28 06:19:19;;;;;;;66.32;8.68;;;;;;;;;;5032323;28;20208;-73
2023/03/28 06:21:47;;;;;;;66.82;10.23;;;;;;;;;;5032465;28;20309;-71
2023/03/28 06:24:15;;;;;;;70.75;9.77;;;;;;;;;;5032538;28;20230;-72
2023/03/28 06:26:42;;;;;;;64.95;8.63;;;;;;;;;;5032862;28;20209;-72
2023/03/28 06:29:09;;;;;;;69.10;10.65;;;;;;;;;;5032047;28;20205;-73
2023/03/28 06:31:36;;;;;;;63.30;8.90;;;;;;;;;;5032438;28;20210;-73
2023/03/28 06:34:03;;;;;;;66.18;9.63;;;;;;;;;;5032396;28;20220;-72
2023/03/28 06:36:30;;;;;;;66.82;9.73;;;;;;;;;;5032208;28;20232;-71
2023/03/28 06:39:00;;;;;;;67.00;9.00;;;;;;;;;;5031854;28;20206;-72
2023/03/28 06:41:27;;;;;;;65.80;9.25;;;;;;;;;;5032683;28;20300;-72
2023/03/28 06:43:54;;;;;;;64.55;9.35;;;;;;;;;;5032428;28;20232;-72
2023/03/28 06:46:21;;;;;;;64.38;8.07;;;;;;;;;;5032173;28;20236;-72
2023/03/28 06:48:48;;;;;;;66.15;10.10;;;;;;;;;;5031716;28;20236;-72
2023/03/28 06:51:15;;;;;;;67.55;10.52;;;;;;;;;;5032264;28;20701;-72
2023/03/28 06:53:42;;;;;;;66.68;9.18;;;;;;;;;;5032325;28;20215;-72
2023/03/28 06:56:11;;;;;;;69.93;10.18;;;;;;;;;;5031728;28;20694;-72
2023/03/28 06:58:39;;;;;;;64.22;8.48;;;;;;;;;;5031734;28;20227;-72
2023/03/28 07:01:06;;;;;;;70.97;9.55;;;;;;;;;;5032258;28;20206;-72
2023/03/28 07:03:33;;;;;;;65.93;9.50;;;;;;;;;;5031867;28;20206;-72
2023/03/28 07:06:04;;;;;;;65.97;9.75;;;;;;;;;;5031853;28;20219;-72
2023/03/28 07:08:31;;;;;;;66.82;9.57;;;;;;;;;;5031568;28;20237;-73
2023/03/28 07:10:58;;;;;;;63.65;8.82;;;;;;;;;;5031986;28;20582;-72
2023/03/28 07:13:27;;;;;;;67.32;11.02;;;;;;;;;;5031951;28;20791;-72
2023/03/28 07:16:01;;;;;;;69.32;10.13;;;;;;;;;;5031866;28;20587;-73
2023/03/28 07:18:28;;;;;;;63.90;8.63;;;;;;;;;;5031465;28;20225;-72
2023/03/28 07:20:56;;;;;;;63.28;8.13;;;;;;;;;;5028872;28;20202;-72
2023/03/28 07:23:23;;;;;;;67.50;8.15;;;;;;;;;;5031353;28;20210;-72
2023/03/28 07:25:50;;;;;;;64.90;8.57;;;;;;;;;;5030982;28;20222;-72
2023/03/28 07:28:17;;;;;;;63.10;7.68;;;;;;;;;;5031164;28;20230;-72
2023/03/28 07:30:46;;;;;;;73.30;8.60;;;;;;;;;;5031077;28;20202;-74
2023/03/28 07:33:13;;;;;;;66.82;8.30;;;;;;;;;;5031333;28;20297;-72
2023/03/28 07:35:40;;;;;;;62.58;7.47;;;;;;;;;;5031427;28;20694;-72
2023/03/28 07:38:08;;;;;;;67.88;8.25;;;;;;;;;;5031260;28;20755;-74
2023/03/28 07:40:35;;;;;;;68.40;9.15;;;;;;;;;;5031172;28;20305;-71
2023/03/28 07:43:03;;;;;;;62.80;7.45;;;;;;;;;;5031397;28;20206;-71
2023/03/28 07:45:30;;;;;;;68.07;7.07;;;;;;;;;;5031179;28;20234;-70
2023/03/28 07:47:58;;;;;;;60.95;6.05;;;;;;;;;;5031212;28;20741;-73
2023/03/28 07:50:25;;;;;;;61.35;6.22;;;;;;;;;;5031326;28;20207;-72
2023/03/28 07:52:56;;;;;;;62.47;5.82;;;;;;;;;;5031254;28;20297;-72
2023/03/28 07:55:24;;;;;;;61.40;5.60;;;;;;;;;;5031418;28;20237;-71
2023/03/28 07:57:51;;;;;;;62.00;6.22;;;;;;;;;;5031095;28;20234;-74
2023/03/28 08:00:22;;;;;;;61.92;5.93;;;;;;;;;;5030849;28;20814;-72
2023/03/28 08:02:49;;;;;;;65.50;5.45;;;;;;;;;;5031253;28;20651;-70
2023/03/28 08:05:18;;;;;;;62.58;5.80;;;;;;;;;;5031234;28;20230;-74
2023/03/28 08:07:46;;;;;;;63.00;5.90;;;;;;;;;;5033210;28;20228;-72
2023/03/28 08:10:13;;;;;;;64.40;5.05;;;;;;;;;;5034671;28;20237;-72
2023/03/28 08:12:41;;;;;;;62.05;5.82;;;;;;;;;;5034667;28;20207;-72
2023/03/28 08:15:09;;;;;;;60.33;4.90;;;;;;;;;;5034881;28;20206;-73
2023/03/28 08:17:36;;;;;;;64.68;6.53;;;;;;;;;;5034563;28;20321;-71
2023/03/28 08:20:09;;;;;;;63.50;5.60;;;;;;;;;;5034661;28;20206;-72
2023/03/28 08:22:37;;;;;;;67.50;5.40;;;;;;;;;;5034922;28;20215;-74
2023/03/28 08:25:05;;;;;;;63.17;5.63;;;;;;;;;;5034653;28;20571;-74
2023/03/28 08:27:32;;;;;;;62.50;4.82;;;;;;;;;;5034774;28;20230;-71
2023/03/28 08:29:59;;;;;;;61.95;5.80;;;;;;;;;;5034795;28;20234;-72
2023/03/28 08:32:26;;;;;;;66.80;6.43;;;;;;;;;;5034289;28;20206;-68
2023/03/28 08:34:54;;;;;;;62.67;5.47;;;;;;;;;;5034386;28;20198;-72
2023/03/28 08:37:21;;;;;;;62.38;5.80;;;;;;;;;;5034262;28;20473;-70
2023/03/28 08:39:50;;;;;;;60.60;5.55;;;;;;;;;;5034109;28;20260;-71
2023/03/28 08:42:29;;;;;;;61.15;4.47;;;;;;;;;;5034785;28;20202;-72
2023/03/28 08:45:08;;;;;;;58.33;4.80;;;;;;;;;;5034123;28;20313;-72
2023/03/28 08:47:40;;;;;;;65.22;4.47;;;;;;;;;;5034246;28;20233;-72
2023/03/28 08:50:10;;;;;;;60.47;4.97;;;;;;;;;;5033886;28;20241;-70
2023/03/28 08:52:38;;;;;;;61.58;5.07;;;;;;;;;;5034198;28;20202;-70
2023/03/28 08:55:16;;;;;;;63.55;5.20;;;;;;;;;;5034137;28;20256;-72
2023/03/28 08:57:44;;;;;;;62.97;4.70;;;;;;;;;;5034056;28;20227;-70
2023/03/28 09:00:14;;;;;;;58.58;3.88;;;;;;;;;;5033499;28;20210;-70
2023/03/28 09:02:42;;;;;;;60.65;4.63;;;;;;;;;;5034028;28;20682;-69
2023/03/28 09:05:14;;;;;;;65.60;4.67;;;;;;;;;;5034143;28;20230;-70
2023/03/28 09:07:47;;;;;;;65.07;6.70;;;;;;;;;;5034089;28;20473;-68
2023/03/28 09:10:20;;;;;;;62.60;4.80;;;;;;;;;;5033790;28;20449;-70
2023/03/28 09:12:52;;;;;;;65.47;5.07;;;;;;;;;;5033982;28;20209;-70
2023/03/28 09:15:37;;;;;;;64.70;5.47;;;;;;;;;;5034215;28;20811;-70
2023/03/28 09:18:15;;;;;;;60.83;4.77;;;;;;;;;;5033306;28;20552;-70
2023/03/28 09:20:45;;;;;;;60.70;4.30;;;;;;;;;;5033846;28;20541;-70
2023/03/28 09:23:18;;;;;;;62.40;4.23;;;;;;;;;;5033794;28;20885;-70
2023/03/28 09:25:49;;;;;;;59.80;3.60;;;;;;;;;;5033703;28;20575;-71
2023/03/28 09:28:26;;;;;;;59.10;4.10;;;;;;;;;;5033556;28;20469;-71
2023/03/28 09:30:54;;;;;;;59.97;3.80;;;;;;;;;;5033624;28;20824;-71
2023/03/28 09:33:24;;;;;;;61.00;4.40;;;;;;;;;;5033582;28;20463;-71
2023/03/28 09:35:53;;;;;;;60.90;4.00;;;;;;;;;;5033514;28;20954;-70
2023/03/28 09:38:23;;;;;;;61.07;3.90;;;;;;;;;;5033510;28;20480;-71
2023/03/28 09:40:52;;;;;;;61.13;3.60;;;;;;;;;;5033216;28;20468;-71
2023/03/28 09:43:25;;;;;;;59.70;4.10;;;;;;;;;;5033390;28;20742;-71
2023/03/28 09:45:59;;;;;;;60.17;3.50;;;;;;;;;;5033339;28;20488;-71
2023/03/28 09:48:27;;;;;;;62.73;4.17;;;;;;;;;;5033124;28;20469;-71
2023/03/28 09:50:54;;;;;;;59.47;4.00;;;;;;;;;;5033357;28;20453;-71
2023/03/28 09:53:24;;;;;;;60.10;3.70;;;;;;;;;;5033327;28;20836;-71
2023/03/28 09:55:54;;;;;;;59.77;3.60;;;;;;;;;;5033126;28;20445;-70
2023/03/28 09:58:21;;;;;;;60.40;3.60;;;;;;;;;;5032924;28;20465;-69
2023/03/28 10:00:49;;;;;;;59.60;3.40;;;;;;;;;;5032643;28;20463;-71
2023/03/28 10:03:21;;;;;;;59.30;3.53;;;;;;;;;;5033130;28;20941;-71
2023/03/28 10:05:49;;;;;;;58.90;3.67;;;;;;;;;;5033294;28;20480;-69
2023/03/28 10:08:22;;;;;;;59.40;3.70;;;;;;;;;;5032829;28;20474;-69
2023/03/28 10:10:59;;;;;;;59.63;3.20;;;;;;;;;;5032792;28;20449;-69
2023/03/28 10:13:26;;;;;;;60.27;3.83;;;;;;;;;;5032725;28;21051;-69
2023/03/28 10:15:56;;;;;;;59.80;3.17;;;;;;;;;;5032723;28;20949;-69
2023/03/28 10:18:27;;;;;;;58.30;3.03;;;;;;;;;;5033090;28;20608;-69
2023/03/28 10:20:55;;;;;;;59.40;3.20;;;;;;;;;;5032637;28;20453;-70
2023/03/28 10:23:22;;;;;;;59.40;3.13;;;;;;;;;;5032695;28;20485;-70
2023/03/28 10:25:51;;;;;;;57.67;2.70;;;;;;;;;;5032477;28;20487;-70
2023/03/28 10:28:24;;;;;;;59.17;3.60;;;;;;;;;;5032663;28;20465;-70
2023/03/28 10:30:53;;;;;;;58.80;3.03;;;;;;;;;;5031803;28;20460;-72
2023/03/28 10:33:24;;;;;;;61.17;3.67;;;;;;;;;;5032405;28;20972;-70
2023/03/28 10:35:56;;;;;;;60.27;3.83;;;;;;;;;;5032356;28;21005;-69
2023/03/28 10:38:24;;;;;;;57.53;2.90;;;;;;;;;;5032121;28;20556;-71
2023/03/28 10:40:53;;;;;;;57.67;2.93;;;;;;;;;;5032240;28;20457;-71
2023/03/28 10:43:21;;;;;;;59.20;3.27;;;;;;;;;;5032233;28;20944;-71
2023/03/28 10:45:49;;;;;;;59.77;3.30;;;;;;;;;;5032022;28;20485;-71
2023/03/28 10:48:18;;;;;;;58.27;2.90;;;;;;;;;;5032547;28;20477;-71
2023/03/28 10:50:47;;;;;;;59.07;2.53;;;;;;;;;;5031553;28;20458;-71
2023/03/28 10:53:30;;;;;;;59.63;3.00;;;;;;;;;;5032331;28;20460;-71
2023/03/28 10:56:03;;;;;;;60.07;2.90;;;;;;;;;;5032270;28;20592;-71
2023/03/28 10:58:35;;;;;;;59.50;2.80;;;;;;;;;;5032070;28;20910;-71
2023/03/28 11:01:06;;;;;;;59.20;3.20;;;;;;;;;;5032116;28;20844;-71
2023/03/28 11:03:39;;;;;;;59.60;3.43;;;;;;;;;;5031961;28;20456;-71
2023/03/28 11:06:09;;;;;;;57.67;2.90;;;;;;;;;;5032603;28;20488;-71
2023/03/28 11:08:40;;;;;;;59.47;3.10;;;;;;;;;;5031266;28;20469;-71
2023/03/28 11:11:15;;;;;;;57.90;3.17;;;;;;;;;;5032274;28;20445;-71
2023/03/28 11:13:49;;;;;;;58.13;3.17;;;;;;;;;;5031718;28;20452;-71
2023/03/28 11:16:21;;;;;;;58.80;3.30;;;;;;;;;;5031971;28;20485;-70
2023/03/28 11:18:55;;;;;;;59.70;3.40;;;;;;;;;;5031665;28;20465;-71
2023/03/28 11:21:27;;;;;;;58.70;2.93;;;;;;;;;;5031828;28;20444;-70
2023/03/28 11:24:00;;;;;;;58.70;3.10;;;;;;;;;;5031837;28;20950;-70
2023/03/28 11:26:31;;;;;;;58.57;3.37;;;;;;;;;;5031652;28;20445;-71
2023/03/28 11:29:08;;;;;;;58.87;3.10;;;;;;;;;;5031367;28;20452;-71
2023/03/28 11:31:38;;;;;;;58.60;2.90;;;;;;;;;;5031859;28;20455;-71
2023/03/28 11:34:07;;;;;;;61.33;2.90;;;;;;;;;;5031677;28;20972;-71
2023/03/28 11:36:38;;;;;;;60.07;2.80;;;;;;;;;;5031325;28;20488;-70
2023/03/28 11:39:09;;;;;;;58.20;2.60;;;;;;;;;;5031595;28;20453;-71
2023/03/28 11:41:38;;;;;;;59.20;3.63;;;;;;;;;;5033654;28;20506;-71
2023/03/28 11:44:11;;;;;;;58.57;2.90;;;;;;;;;;5035528;28;20448;-71
2023/03/28 11:46:41;;;;;;;57.70;2.63;;;;;;;;;;5035404;28;20453;-71
2023/03/28 11:49:14;;;;;;;58.20;2.80;;;;;;;;;;5035414;28;20453;-71
2023/03/28 11:51:45;;;;;;;58.77;2.83;;;;;;;;;;5035744;28;20492;-72
2023/03/28 11:54:15;;;;;;;62.47;3.20;;;;;;;;;;5035586;28;20452;-71
2023/03/28 11:56:47;;;;;;;59.27;3.50;;;;;;;;;;5035475;28;20481;-71
2023/03/28 11:59:18;;;;;;;57.67;3.40;;;;;;;;;;5035129;28;20449;-71
2023/03/28 12:01:46;;;;;;;60.80;3.47;;;;;;;;;;5035325;28;20455;-70
2023/03/28 12:04:15;;;;;;;56.90;2.67;;;;;;;;;;5035456;28;20445;-71
2023/03/28 12:06:46;;;;;;;58.17;2.90;;;;;;;;;;5035101;28;20453;-71
2023/03/28 12:09:16;;;;;;;58.07;3.20;;;;;;;;;;5035050;28;20463;-71
2023/03/28 12:11:48;;;;;;;57.83;3.00;;;;;;;;;;5035227;28;20552;-71
2023/03/28 12:14:31;;;;;;;60.47;3.50;;;;;;;;;;5035022;28;20468;-71
2023/03/28 12:17:00;;;;;;;58.70;3.33;;;;;;;;;;5035111;28;21005;-71
2023/03/28 12:19:31;;;;;;;60.50;3.63;;;;;;;;;;5034931;28;20507;-71
2023/03/28 12:22:00;;;;;;;57.90;3.20;;;;;;;;;;5035232;28;20453;-70
2023/03/28 12:24:34;;;;;;;61.57;3.63;;;;;;;;;;5034738;28;20942;-70
2023/03/28 12:27:05;;;;;;;61.70;3.33;;;;;;;;;;5035085;28;20464;-71
2023/03/28 12:29:37;;;;;;;57.90;3.53;;;;;;;;;;5034413;28;20452;-71
2023/03/28 12:32:10;;;;;;;58.70;3.43;;;;;;;;;;5034828;28;20460;-71
2023/03/28 12:34:39;;;;;;;58.50;3.77;;;;;;;;;;5034769;28;20806;-71
2023/03/28 12:37:10;;;;;;;58.97;3.57;;;;;;;;;;5034526;28;20580;-71
2023/03/28 12:39:40;;;;;;;59.00;3.20;;;;;;;;;;5034554;28;20457;-71
2023/03/28 12:42:09;;;;;;;58.00;3.17;;;;;;;;;;5034811;28;20460;-71
2023/03/28 12:44:40;;;;;;;58.37;3.87;;;;;;;;;;5034625;28;20721;-71
2023/03/28 12:47:09;;;;;;;58.97;3.30;;;;;;;;;;5034710;28;20472;-70
2023/03/28 12:49:39;;;;;;;59.90;4.30;;;;;;;;;;5034011;28;20448;-69
2023/03/28 12:52:08;;;;;;;59.30;3.43;;;;;;;;;;5034385;28;20445;-70
2023/03/28 12:54:35;;;;;;;62.60;3.87;;;;;;;;;;5033978;28;20441;-71
2023/03/28 12:57:04;;;;;;;59.60;3.40;;;;;;;;;;5034357;28;20489;-70
2023/03/28 12:59:58;;;;;;;60.23;3.33;;;;;;;;;;5033977;28;20455;-71
2023/03/28 13:02:29;;;;;;;59.37;3.50;;;;;;;;;;4987842;28;20467;-71
2023/03/28 13:04:59;;;;;;;60.13;3.67;;;;;;;;;;5034272;28;20440;-71
2023/03/28 13:07:29;;;;;;;58.50;3.50;;;;;;;;;;5034159;28;20453;-70
2023/03/28 13:10:01;;;;;;;63.30;3.27;;;;;;;;;;5033925;28;20477;-71
2023/03/28 13:12:34;;;;;;;60.60;3.80;;;;;;;;;;5033806;28;20448;-71
2023/03/28 13:15:01;;;;;;;58.83;3.60;;;;;;;;;;5034306;28;20449;-71
2023/03/28 13:17:32;;;;;;;60.10;3.40;;;;;;;;;;5033877;28;20519;-70
2023/03/28 13:20:08;;;;;;;60.53;3.80;;;;;;;;;;5033639;28;20460;-71
2023/03/28 13:22:36;;;;;;;60.00;3.50;;;;;;;;;;5033811;28;20459;-71
2023/03/28 13:25:24;;;;;;;58.10;3.20;;;;;;;;;;5033599;28;20452;-71
2023/03/28 13:27:53;;;;;;;59.10;3.50;;;;;;;;;;5033500;28;20471;-71
2023/03/28 13:30:20;;;;;;;58.80;3.43;;;;;;;;;;5033380;28;20445;-71
2023/03/28 13:32:51;;;;;;;58.97;3.40;;;;;;;;;;5033641;28;20838;-70
2023/03/28 13:35:51;;;;;;;58.27;3.30;;;;;;;;;;5033723;28;20574;-71
2023/03/28 13:38:25;;;;;;;60.00;3.10;;;;;;;;;;4952956;29;20559;-70
2023/03/28 13:40:54;;;;;;;59.40;3.40;;;;;;;;;;4952916;29;20487;-71
2023/03/28 13:43:25;;;;;;;58.30;3.20;;;;;;;;;;4953087;29;20500;-71
2023/03/28 13:45:54;;;;;;;59.23;3.17;;;;;;;;;;4952851;29;20468;-71
2023/03/28 13:48:25;;;;;;;58.77;3.60;;;;;;;;;;4952933;29;20474;-71
2023/03/28 13:50:53;;;;;;;58.77;3.10;;;;;;;;;;4952812;29;20467;-71
2023/03/28 13:53:21;;;;;;;58.63;3.13;;;;;;;;;;4953001;29;21024;-69
2023/03/28 13:55:49;;;;;;;59.77;4.03;;;;;;;;;;4952819;29;20546;-71
2023/03/28 13:58:16;;;;;;;59.70;3.07;;;;;;;;;;4952552;29;20492;-70
2023/03/28 14:00:43;;;;;;;58.40;3.60;;;;;;;;;;4952579;29;20540;-70
2023/03/28 14:03:14;;;;;;;58.80;3.50;;;;;;;;;;4952818;29;20966;-70
2023/03/28 14:05:45;;;;;;;59.50;3.90;;;;;;;;;;4951894;28;20516;-69
2023/03/28 14:08:24;;;;;;;63.20;3.40;;;;;;;;;;4958867;28;20480;-70
2023/03/28 14:10:54;;;;;;;59.30;3.40;;;;;;;;;;5032431;28;20455;-69
2023/03/28 14:13:23;;;;;;;59.73;3.50;;;;;;;;;;5033254;28;20445;-69
2023/03/28 14:15:52;;;;;;;59.27;3.40;;;;;;;;;;5032675;28;20450;-70
2023/03/28 14:18:23;;;;;;;60.63;3.30;;;;;;;;;;5032500;28;20516;-71
2023/03/28 14:20:51;;;;;;;58.27;3.43;;;;;;;;;;5032432;28;20458;-71
2023/03/28 14:23:27;;;;;;;59.60;3.40;;;;;;;;;;5032590;28;20445;-71
2023/03/28 14:26:03;;;;;;;60.60;3.63;;;;;;;;;;5089354;28;20508;-70
2023/03/28 14:28:31;;;;;;;60.00;3.70;;;;;;;;;;5089140;28;20462;-70
2023/03/28 14:30:59;;;;;;;58.87;3.20;;;;;;;;;;5089194;28;20450;-70
2023/03/28 14:33:30;;;;;;;59.27;3.40;;;;;;;;;;5089331;28;20823;-71
2023/03/28 14:35:58;;;;;;;59.03;3.80;;;;;;;;;;5088668;28;20565;-71
2023/03/28 14:38:30;;;;;;;58.63;3.47;;;;;;;;;;5088613;28;20459;-71
2023/03/28 14:41:06;;;;;;;60.47;3.93;;;;;;;;;;5088669;28;20488;-70
2023/03/28 14:43:34;;;;;;;61.57;4.20;;;;;;;;;;5088883;28;20442;-70
2023/03/28 14:46:02;;;;;;;59.07;3.80;;;;;;;;;;5088472;28;20573;-71